Time;durP1;ratioP1;P1;durP2;ratioP2;P2;SDS_P1;SDS_P2;PMS_P1;PMS_P2;Temp;Humidity;BMP_temperature;BMP_pressure;BME280_temperature;BME280_humidity;BME280_pressure;Samples;Min_cycle;Max_cycle;Signal;HPM_P1;HPM_P2
2023/07/30 00:02:16;;;;;;;0.68;0.68;;;15.40;99.90;;;;;;5113954;28;20026;-68
2023/07/30 00:04:42;;;;;;;0.47;0.43;;;15.30;99.90;;;;;;5114046;28;20050;-66
2023/07/30 00:07:07;;;;;;;;;;;15.50;99.90;;;;;;5115047;28;20134;-65
2023/07/30 00:09:33;;;;;;;0.30;0.30;;;14.90;99.90;;;;;;5114291;28;19975;-68
2023/07/30 00:11:58;;;;;;;;;;;15.40;99.90;;;;;;5114824;28;20100;-66
2023/07/30 00:14:24;;;;;;;0.52;0.52;;;15.20;99.90;;;;;;5114329;28;19975;-68
2023/07/30 00:16:50;;;;;;;;;;;15.30;99.90;;;;;;5114612;28;20391;-66
2023/07/30 00:19:15;;;;;;;0.32;0.32;;;15.30;99.90;;;;;;5114120;27;20012;-65
2023/07/30 00:21:43;;;;;;;;;;;15.50;99.90;;;;;;5114777;28;20062;-66
2023/07/30 00:24:09;;;;;;;0.45;0.30;;;15.20;99.90;;;;;;5114175;28;19924;-66
2023/07/30 00:26:34;;;;;;;;;;;15.40;99.90;;;;;;5114545;28;20100;-68
2023/07/30 00:29:00;;;;;;;0.30;0.25;;;15.20;99.90;;;;;;5114288;28;19926;-66
2023/07/30 00:31:26;;;;;;;;;;;15.50;99.90;;;;;;5113576;28;20046;-66
2023/07/30 00:33:51;;;;;;;1.15;1.15;;;15.20;99.90;;;;;;5113972;28;19973;-65
2023/07/30 00:36:17;;;;;;;;;;;15.70;99.90;;;;;;5114452;28;20129;-66
2023/07/30 00:38:42;;;;;;;0.38;0.38;;;15.70;99.90;;;;;;5114093;28;20321;-65
2023/07/30 00:41:08;;;;;;;;;;;15.30;99.90;;;;;;5114178;27;20130;-66
2023/07/30 00:43:33;;;;;;;0.30;0.30;;;15.20;99.90;;;;;;5113733;28;19923;-66
2023/07/30 00:45:59;;;;;;;;;;;15.20;99.90;;;;;;5113957;28;20097;-66
2023/07/30 00:48:25;;;;;;;2.25;0.50;;;15.10;99.90;;;;;;5113435;28;19984;-65
2023/07/30 00:50:50;;;;;;;;;;;15.10;99.90;;;;;;5114134;28;20047;-66
2023/07/30 00:53:17;;;;;;;0.68;0.35;;;15.40;99.90;;;;;;5113625;27;19924;-66
2023/07/30 00:55:44;;;;;;;1.13;0.65;;;15.10;99.90;;;;;;5112477;28;20129;-67
2023/07/30 00:58:11;;;;;;;0.50;0.50;;;15.20;99.90;;;;;;5113454;28;20195;-66
2023/07/30 01:00:36;;;;;;;0.38;0.38;;;15.30;99.90;;;;;;5113310;28;20467;-66
2023/07/30 01:03:03;;;;;;;;;;;15.00;99.90;;;;;;5113530;28;20075;-66
2023/07/30 01:05:28;;;;;;;1.83;0.80;;;15.20;99.90;;;;;;5111897;28;19920;-66
2023/07/30 01:07:54;;;;;;;;;;;14.90;99.90;;;;;;5113666;28;20059;-65
2023/07/30 01:10:21;;;;;;;0.75;0.60;;;15.40;99.90;;;;;;5111897;28;19923;-65
2023/07/30 01:12:47;;;;;;;0.50;0.50;;;15.60;99.90;;;;;;5112809;28;20051;-66
2023/07/30 01:15:13;;;;;;;0.73;0.63;;;16.00;99.90;;;;;;5113000;28;20044;-65
2023/07/30 01:17:39;;;;;;;;;;;15.70;99.90;;;;;;5113271;28;20047;-64
2023/07/30 01:20:05;;;;;;;0.35;0.35;;;15.90;99.90;;;;;;5111773;28;19966;-65
2023/07/30 01:22:31;;;;;;;0.77;0.25;;;15.30;99.90;;;;;;5113010;28;20130;-65
2023/07/30 01:24:56;;;;;;;;;;;16.10;99.90;;;;;;5113244;28;20130;-67
2023/07/30 01:27:28;;;;;;;0.30;0.30;;;15.60;99.90;;;;;;5112947;28;19923;-65
2023/07/30 01:30:10;;;;;;;1.08;0.60;;;16.10;99.90;;;;;;5112682;28;20051;-68
2023/07/30 01:32:37;;;;;;;1.17;0.60;;;15.40;99.90;;;;;;5112912;28;20054;-65
2023/07/30 01:35:07;;;;;;;2.17;1.38;;;15.60;99.90;;;;;;5112751;28;20085;-65
2023/07/30 01:37:33;;;;;;;1.48;0.60;;;15.50;99.90;;;;;;5112604;28;20056;-65
2023/07/30 01:40:00;;;;;;;0.55;0.55;;;16.20;99.90;;;;;;5112627;28;20134;-65
2023/07/30 01:42:32;;;;;;;1.00;0.95;;;15.80;99.90;;;;;;5111117;28;20047;-65
2023/07/30 01:44:57;;;;;;;0.68;0.50;;;15.90;99.90;;;;;;5112575;28;20062;-66
2023/07/30 01:47:23;;;;;;;;;;;16.30;99.90;;;;;;5113177;28;20058;-64
2023/07/30 01:49:49;;;;;;;1.92;0.43;;;15.80;99.90;;;;;;5112641;28;19927;-65
2023/07/30 01:52:14;;;;;;;;;;;16.10;99.90;;;;;;5113096;28;20047;-68
2023/07/30 01:54:40;;;;;;;7.20;0.80;;;16.40;99.90;;;;;;5112331;28;19942;-64
2023/07/30 01:57:06;;;;;;;;;;;15.80;99.90;;;;;;5112632;28;20051;-63
2023/07/30 01:59:31;;;;;;;1.05;0.77;;;15.60;99.90;;;;;;5112118;28;19965;-65
2023/07/30 02:01:57;;;;;;;;;;;15.70;99.90;;;;;;5112523;28;20047;-64
2023/07/30 02:04:22;;;;;;;0.60;0.60;;;16.50;99.90;;;;;;5112422;28;19920;-64
2023/07/30 02:06:48;;;;;;;;;;;15.60;99.90;;;;;;5112459;28;20495;-64
2023/07/30 02:09:14;;;;;;;0.30;0.30;;;16.20;99.90;;;;;;5112172;28;19923;-65
2023/07/30 02:11:39;;;;;;;;;;;15.90;99.90;;;;;;5112438;28;20376;-67
2023/07/30 02:14:05;;;;;;;1.02;0.82;;;15.60;99.90;;;;;;5112206;28;19971;-65
2023/07/30 02:16:30;;;;;;;;;;;16.10;99.90;;;;;;5112325;28;20039;-67
2023/07/30 02:18:56;;;;;;;0.20;0.20;;;15.90;99.90;;;;;;5112039;28;19930;-65
2023/07/30 02:21:22;;;;;;;;;;;16.40;99.90;;;;;;5112365;28;20046;-65
2023/07/30 02:23:47;;;;;;;1.60;0.70;;;16.50;99.90;;;;;;5111216;28;20431;-64
2023/07/30 02:26:13;;;;;;;;;;;16.60;99.90;;;;;;5110923;28;20086;-64
2023/07/30 02:28:38;;;;;;;0.68;0.68;;;16.10;99.90;;;;;;5111995;28;19931;-64
2023/07/30 02:31:04;;;;;;;;;;;16.20;99.90;;;;;;5112430;28;20048;-65
2023/07/30 02:33:30;;;;;;;0.50;0.50;;;16.20;99.90;;;;;;5111865;28;19927;-66
2023/07/30 02:35:55;;;;;;;;;;;16.70;99.90;;;;;;5112233;28;20128;-65
2023/07/30 02:38:21;;;;;;;11.75;0.68;;;17.00;99.90;;;;;;5111700;28;20014;-64
2023/07/30 02:40:46;;;;;;;;;;;16.80;99.90;;;;;;5112190;28;20044;-65
2023/07/30 02:43:12;;;;;;;3.03;0.95;;;15.90;99.90;;;;;;5111620;28;19924;-66
2023/07/30 02:45:38;;;;;;;;;;;16.30;99.90;;;;;;5112311;28;20146;-65
2023/07/30 02:48:04;;;;;;;0.60;0.60;;;15.90;99.90;;;;;;5111787;28;20299;-65
2023/07/30 02:50:30;;;;;;;;;;;16.50;99.90;;;;;;5112285;28;20044;-65
2023/07/30 02:52:55;;;;;;;0.28;0.28;;;16.70;99.90;;;;;;5110904;28;19930;-64
2023/07/30 02:55:21;;;;;;;0.28;0.28;;;16.10;99.90;;;;;;5111881;28;20039;-64
2023/07/30 02:57:46;;;;;;;;;;;16.00;99.90;;;;;;5112091;28;20051;-64
2023/07/30 03:00:13;;;;;;;0.45;0.45;;;16.30;99.90;;;;;;5111795;28;19923;-64
2023/07/30 03:02:40;;;;;;;8.90;0.82;;;16.50;99.90;;;;;;5111720;28;20047;-65
2023/07/30 03:05:06;;;;;;;0.60;0.50;;;16.70;99.90;;;;;;5110014;28;20071;-66
2023/07/30 03:07:31;;;;;;;;;;;15.90;99.90;;;;;;5111953;28;20105;-64
2023/07/30 03:09:57;;;;;;;1.15;1.15;;;16.40;99.90;;;;;;5110188;28;19923;-63
2023/07/30 03:12:23;;;;;;;;;;;16.00;99.90;;;;;;5111761;28;20049;-65
2023/07/30 03:14:48;;;;;;;0.15;0.15;;;16.40;99.90;;;;;;5111538;28;19970;-64
2023/07/30 03:17:14;;;;;;;;;;;15.70;99.90;;;;;;5112015;28;20087;-65
2023/07/30 03:19:40;;;;;;;0.40;0.40;;;16.60;99.90;;;;;;5111463;28;19928;-64
2023/07/30 03:22:05;;;;;;;;;;;15.80;99.90;;;;;;5111823;28;20502;-65
2023/07/30 03:24:31;;;;;;;0.30;0.30;;;16.10;99.90;;;;;;5109964;28;20264;-66
2023/07/30 03:26:57;;;;;;;;;;;16.60;99.90;;;;;;5110670;28;20050;-64
2023/07/30 03:29:22;;;;;;;0.13;0.13;;;15.90;99.90;;;;;;5110220;28;19972;-64
2023/07/30 03:31:48;;;;;;;;;;;16.30;99.90;;;;;;5110661;28;20054;-64
2023/07/30 03:34:13;;;;;;;0.73;0.68;;;15.40;99.90;;;;;;5110287;28;19926;-64
2023/07/30 03:36:39;;;;;;;;;;;15.40;99.90;;;;;;5114469;28;20140;-63
2023/07/30 03:39:05;;;;;;;0.15;0.15;;;15.70;99.90;;;;;;5115051;28;20014;-65
2023/07/30 03:41:31;;;;;;;;;;;16.40;99.90;;;;;;5115259;28;20181;-63
2023/07/30 03:43:57;;;;;;;1.65;1.55;;;16.10;99.90;;;;;;5115240;28;20496;-64
2023/07/30 03:46:22;;;;;;;;;;;16.10;99.90;;;;;;5115554;28;20062;-65
2023/07/30 03:48:48;;;;;;;1.45;0.45;;;15.20;99.90;;;;;;5114958;28;19967;-64
2023/07/30 03:51:13;;;;;;;;;;;16.10;99.90;;;;;;5115319;28;20498;-64
2023/07/30 03:53:39;;;;;;;0.55;0.55;;;15.60;99.90;;;;;;5114777;28;20289;-63
2023/07/30 03:56:05;;;;;;;;;;;15.30;99.90;;;;;;5114984;28;20035;-64
2023/07/30 03:58:30;;;;;;;0.20;0.20;;;15.80;99.90;;;;;;5114730;28;19924;-63
2023/07/30 04:00:56;;;;;;;;;;;15.40;99.90;;;;;;5115118;28;20093;-65
2023/07/30 04:03:22;;;;;;;0.15;0.15;;;15.60;99.90;;;;;;5114656;28;19931;-66
2023/07/30 04:05:47;;;;;;;;;;;14.90;99.90;;;;;;5114674;28;20128;-64
2023/07/30 04:08:13;;;;;;;0.50;0.50;;;15.50;99.90;;;;;;5114411;28;19923;-65
2023/07/30 04:10:38;;;;;;;;;;;14.90;99.90;;;;;;5113663;28;20491;-65
2023/07/30 04:13:07;;;;;;;0.30;0.30;;;15.10;99.90;;;;;;5114253;28;19920;-64
2023/07/30 04:15:33;;;;;;;0.30;0.30;;;15.50;99.90;;;;;;5114441;28;20047;-64
2023/07/30 04:17:59;;;;;;;;;;;15.10;99.90;;;;;;5114731;28;20043;-65
2023/07/30 04:20:25;;;;;;;0.65;0.63;;;15.90;99.90;;;;;;5114201;28;19920;-64
2023/07/30 04:22:51;;;;;;;;;;;15.50;99.90;;;;;;5114624;28;20517;-64
2023/07/30 04:25:16;;;;;;;0.40;0.40;;;15.20;99.90;;;;;;5113913;28;19930;-65
2023/07/30 04:27:42;;;;;;;;;;;14.90;99.90;;;;;;5113559;28;20044;-65
2023/07/30 04:30:08;;;;;;;8.20;0.35;;;15.80;99.90;;;;;;5114116;28;20056;-64
2023/07/30 04:32:34;;;;;;;0.25;0.25;;;15.70;99.90;;;;;;5114028;28;20772;-65
2023/07/30 04:35:00;;;;;;;;;;;15.40;99.90;;;;;;5114379;27;20050;-65
2023/07/30 04:37:26;;;;;;;0.35;0.35;;;15.90;99.90;;;;;;5113887;28;19927;-63
2023/07/30 04:39:51;;;;;;;;;;;16.10;99.90;;;;;;5114140;28;20051;-65
2023/07/30 04:42:17;;;;;;;0.20;0.20;;;16.30;99.90;;;;;;5113893;28;20363;-64
2023/07/30 04:44:43;;;;;;;;;;;15.80;99.90;;;;;;5114204;28;20168;-64
2023/07/30 04:47:09;;;;;;;0.50;0.50;;;16.40;99.90;;;;;;5113124;28;19927;-64
2023/07/30 04:49:36;;;;;;;;;;;16.30;99.90;;;;;;5114096;28;20395;-67
2023/07/30 04:52:02;;;;;;;;;;;16.40;99.90;;;;;;5114095;28;19930;-65
2023/07/30 04:54:28;;;;;;;0.43;0.43;;;15.80;99.90;;;;;;5113417;28;20348;-64
2023/07/30 04:56:53;;;;;;;;;;;16.30;99.90;;;;;;5114102;28;20043;-64
2023/07/30 04:59:19;;;;;;;0.20;0.20;;;16.10;99.90;;;;;;5113669;28;19976;-63
2023/07/30 05:01:44;;;;;;;;;;;16.10;99.90;;;;;;5114108;28;20082;-64
2023/07/30 05:04:10;;;;;;;0.20;0.20;;;16.60;99.90;;;;;;5113676;28;19923;-67
2023/07/30 05:06:36;;;;;;;;;;;16.00;99.90;;;;;;5113792;28;20134;-64
2023/07/30 05:09:02;;;;;;;0.28;0.28;;;16.20;99.90;;;;;;5111905;28;19979;-64
2023/07/30 05:11:27;;;;;;;;;;;16.50;99.90;;;;;;5112797;28;20047;-64
2023/07/30 05:13:53;;;;;;;18.98;1.02;;;16.70;99.90;;;;;;5113285;28;19920;-64
2023/07/30 05:16:18;;;;;;;;;;;16.60;99.90;;;;;;5113577;28;20497;-64
2023/07/30 05:18:44;;;;;;;1.17;0.90;;;16.10;99.90;;;;;;5113245;28;19920;-63
2023/07/30 05:21:10;;;;;;;;;;;16.90;99.90;;;;;;5113318;28;20426;-64
2023/07/30 05:23:35;;;;;;;1.50;0.45;;;17.20;99.90;;;;;;5112899;28;19924;-64
2023/07/30 05:26:01;;;;;;;;;;;16.60;99.90;;;;;;5113653;28;20567;-65
2023/07/30 05:28:27;;;;;;;0.85;0.30;;;17.40;99.90;;;;;;5112968;28;20310;-65
2023/07/30 05:30:52;;;;;;;;;;;16.80;99.90;;;;;;5113334;28;20180;-64
2023/07/30 05:33:18;;;;;;;0.20;0.20;;;16.60;99.90;;;;;;5112825;28;19920;-64
2023/07/30 05:35:44;;;;;;;;;;;17.10;99.90;;;;;;5113177;28;20398;-64
2023/07/30 05:38:09;;;;;;;0.30;0.30;;;16.80;99.90;;;;;;5112809;28;19931;-64
2023/07/30 05:40:36;;;;;;;0.30;0.30;;;16.70;99.90;;;;;;5112764;28;20047;-64
2023/07/30 05:43:02;;;;;;;0.30;0.30;;;16.50;99.90;;;;;;5111645;28;20062;-65
2023/07/30 05:45:28;;;;;;;;;;;16.70;99.90;;;;;;5112934;28;20051;-66
2023/07/30 05:47:54;;;;;;;0.30;0.20;;;17.10;99.90;;;;;;5112583;28;19974;-64
2023/07/30 05:50:19;;;;;;;;;;;17.10;99.90;;;;;;5112920;28;20091;-64
2023/07/30 05:52:45;;;;;;;0.38;0.38;;;16.80;99.90;;;;;;5111146;28;19943;-64
2023/07/30 05:55:10;;;;;;;;;;;16.80;99.90;;;;;;5112758;28;20051;-65
2023/07/30 05:57:36;;;;;;;0.40;0.40;;;17.00;99.90;;;;;;5112228;28;19920;-64
2023/07/30 06:00:02;;;;;;;0.77;0.73;;;17.10;99.90;;;;;;5112103;28;20052;-65
2023/07/30 06:02:28;;;;;;;;;;;17.30;99.90;;;;;;5113093;28;20577;-64
2023/07/30 06:04:53;;;;;;;0.20;0.20;;;16.80;99.90;;;;;;5112599;28;19924;-65
2023/07/30 06:07:19;;;;;;;;;;;17.10;99.90;;;;;;5112384;28;20059;-65
2023/07/30 06:09:45;;;;;;;0.10;0.10;;;17.00;99.90;;;;;;5111959;28;20003;-64
2023/07/30 06:12:11;;;;;;;;;;;17.20;99.90;;;;;;5112419;28;20059;-64
2023/07/30 06:14:36;;;;;;;0.57;0.57;;;16.50;99.90;;;;;;5112115;28;19919;-65
2023/07/30 06:17:02;;;;;;;;;;;17.10;99.90;;;;;;5077901;28;20454;-64
2023/07/30 06:19:27;;;;;;;;;;;16.90;99.90;;;;;;5091603;28;19935;-65
2023/07/30 06:21:53;;;;;;;;;;;16.80;99.90;;;;;;5099931;28;19923;-66
2023/07/30 06:24:18;;;;;;;;;;;16.60;99.90;;;;;;5111386;28;20044;-65
2023/07/30 06:26:44;;;;;;;;;;;17.00;99.90;;;;;;5112027;28;19924;-65
2023/07/30 06:29:10;;;;;;;;;;;16.90;99.90;;;;;;5112063;28;19928;-66
2023/07/30 06:31:35;;;;;;;;;;;16.90;99.90;;;;;;5111156;28;19938;-65
2023/07/30 06:34:01;;;;;;;;;;;16.70;99.90;;;;;;5111460;28;19920;-65
2023/07/30 06:36:26;;;;;;;;;;;17.10;99.90;;;;;;5111773;28;19919;-64
2023/07/30 06:38:52;;;;;;;;;;;17.10;99.90;;;;;;5110752;28;19919;-65
2023/07/30 06:41:18;;;;;;;;;;;16.70;99.90;;;;;;5111998;28;20276;-64
2023/07/30 06:43:43;;;;;;;;;;;16.70;99.90;;;;;;5112156;28;19938;-66
2023/07/30 06:46:09;;;;;;;;;;;16.80;99.90;;;;;;5110922;28;20046;-66
2023/07/30 06:48:34;;;;;;;;;;;17.10;99.90;;;;;;5111820;28;19926;-65
2023/07/30 06:51:00;;;;;;;;;;;16.80;99.90;;;;;;5111818;28;19927;-65
2023/07/30 06:53:25;;;;;;;;;;;17.20;99.90;;;;;;5093117;28;19919;-65
2023/07/30 06:55:51;;;;;;;;;;;16.70;99.90;;;;;;5112001;28;19924;-64
2023/07/30 06:58:16;;;;;;;;;;;17.00;99.90;;;;;;5111468;28;19931;-66
2023/07/30 07:00:42;;;;;;;;;;;17.40;99.90;;;;;;5111245;28;19920;-66
2023/07/30 07:03:08;;;;;;;;;;;17.70;99.90;;;;;;5111435;28;19923;-65
2023/07/30 07:05:34;;;;;;;;;;;17.70;99.90;;;;;;5111479;28;19920;-66
2023/07/30 07:07:59;;;;;;;;;;;17.70;99.90;;;;;;5111308;28;20420;-65
2023/07/30 07:10:25;;;;;;;;;;;17.60;99.90;;;;;;5113440;28;20014;-66
2023/07/30 07:12:51;;;;;;;;;;;17.80;99.90;;;;;;5115689;28;19924;-66
2023/07/30 07:15:16;;;;;;;;;;;18.20;99.90;;;;;;5115723;28;19919;-63
2023/07/30 07:17:42;;;;;;;;;;;18.80;99.90;;;;;;5114678;28;19947;-66
2023/07/30 07:20:08;;;;;;;;;;;18.60;99.90;;;;;;5115495;28;19978;-66
2023/07/30 07:22:34;;;;;;;;;;;18.80;99.90;;;;;;5115191;28;20015;-65
2023/07/30 07:24:59;;;;;;;;;;;18.60;99.90;;;;;;5115033;28;19920;-64
2023/07/30 07:27:25;;;;;;;;;;;18.50;99.90;;;;;;5115476;28;19945;-65
2023/07/30 07:29:51;;;;;;;;;;;18.80;99.90;;;;;;5115552;28;19976;-66
2023/07/30 07:32:17;;;;;;;;;;;18.60;99.90;;;;;;5107448;28;19923;-67
2023/07/30 07:34:49;;;;;;;;;;;18.50;99.90;;;;;;5114357;28;19978;-68
2023/07/30 07:37:16;;;;;;;;;;;18.20;99.90;;;;;;5114686;28;19926;-67
2023/07/30 07:39:42;;;;;;;;;;;18.60;99.90;;;;;;5114412;28;19938;-67
2023/07/30 07:42:07;;;;;;;;;;;18.20;99.90;;;;;;5113489;28;19920;-67
2023/07/30 07:44:33;;;;;;;;;;;17.90;99.90;;;;;;5114662;28;19947;-66
2023/07/30 07:46:59;;;;;;;;;;;18.50;99.90;;;;;;5113678;28;19982;-65
2023/07/30 07:49:24;;;;;;;;;;;18.30;99.90;;;;;;5111161;28;20374;-65
2023/07/30 07:51:50;;;;;;;;;;;18.40;99.90;;;;;;5106757;28;19995;-65
2023/07/30 07:54:15;;;;;;;;;;;18.40;99.90;;;;;;5114389;28;19920;-64
2023/07/30 07:56:41;;;;;;;;;;;18.30;99.90;;;;;;5114942;28;19927;-64
2023/07/30 07:59:06;;;;;;;;;;;18.20;99.90;;;;;;5114569;28;20371;-64
2023/07/30 08:01:32;;;;;;;;;;;18.20;99.90;;;;;;5113960;28;20291;-65
2023/07/30 08:03:58;;;;;;;;;;;18.10;99.90;;;;;;5114376;28;19919;-64
2023/07/30 08:06:24;;;;;;;;;;;18.20;99.90;;;;;;5114033;28;19924;-65
2023/07/30 08:08:49;;;;;;;;;;;18.00;99.90;;;;;;5113726;28;19931;-64
2023/07/30 08:11:15;;;;;;;;;;;18.20;99.90;;;;;;5114393;27;20317;-64
2023/07/30 08:13:41;;;;;;;;;;;18.20;99.90;;;;;;5114455;28;20090;-66
2023/07/30 08:16:06;;;;;;;;;;;18.10;99.90;;;;;;5112187;28;19971;-65
2023/07/30 08:18:32;;;;;;;;;;;18.20;99.90;;;;;;5114303;28;20501;-64
2023/07/30 08:20:57;;;;;;;;;;;18.10;99.90;;;;;;5113471;28;19976;-65
2023/07/30 08:23:23;;;;;;;;;;;18.00;99.90;;;;;;5113185;28;19927;-65
2023/07/30 08:25:49;;;;;;;;;;;18.00;99.90;;;;;;5114161;28;19971;-64
2023/07/30 08:28:15;;;;;;;;;;;18.20;99.90;;;;;;5114148;28;20012;-64
2023/07/30 08:30:41;;;;;;;;;;;17.90;99.90;;;;;;5113203;28;19986;-64
2023/07/30 08:33:06;;;;;;;;;;;17.90;99.90;;;;;;5113964;28;19965;-64
2023/07/30 08:35:32;;;;;;;;;;;18.20;99.90;;;;;;5113676;28;19928;-65
2023/07/30 08:37:57;;;;;;;;;;;18.00;99.90;;;;;;5113208;28;19931;-64
2023/07/30 08:40:23;;;;;;;;;;;18.40;99.90;;;;;;5114025;28;19976;-67
2023/07/30 08:42:52;;;;;;;;;;;18.30;99.90;;;;;;5113936;28;20053;-64
2023/07/30 08:45:18;;;;;;;;;;;18.40;99.90;;;;;;5113132;28;19924;-68
2023/07/30 08:47:44;;;;;;;;;;;18.70;99.90;;;;;;5113813;28;20014;-66
2023/07/30 08:50:10;;;;;;;;;;;18.50;99.90;;;;;;5113292;28;19981;-65
2023/07/30 08:52:36;;;;;;;;;;;18.40;99.90;;;;;;5112971;28;19923;-65
2023/07/30 08:55:05;;;;;;;;;;;18.50;99.90;;;;;;5113763;28;19920;-64
2023/07/30 08:57:30;;;;;;;;;;;18.10;99.90;;;;;;5113763;28;19924;-64
2023/07/30 09:00:04;;;;;;;;;;;18.20;99.90;;;;;;5112820;28;20006;-64
2023/07/30 09:02:33;;;;;;;;;;;18.30;99.90;;;;;;5113259;28;20030;-66
2023/07/30 09:05:00;;;;;;;;;;;18.20;99.90;;;;;;5113291;28;19923;-66
2023/07/30 09:07:25;;;;;;;;;;;18.40;99.90;;;;;;5112884;28;19931;-66
2023/07/30 09:09:51;;;;;;;;;;;18.20;99.90;;;;;;5113411;28;19919;-65
2023/07/30 09:12:16;;;;;;;;;;;18.00;99.90;;;;;;5112964;28;20260;-65
2023/07/30 09:14:45;;;;;;;;;;;18.40;99.90;;;;;;5113053;28;19919;-65
2023/07/30 09:17:16;;;;;;;;;;;18.30;99.90;;;;;;5112629;28;19920;-64
2023/07/30 09:19:42;;;;;;;;;;;18.20;99.90;;;;;;5113581;28;19920;-64
2023/07/30 09:22:08;;;;;;;;;;;17.70;99.90;;;;;;5112506;28;20005;-64
2023/07/30 09:24:33;;;;;;;;;;;18.00;99.90;;;;;;5113507;28;20393;-64
2023/07/30 09:27:02;;;;;;;;;;;18.50;99.90;;;;;;5113319;28;19919;-65
2023/07/30 09:29:28;;;;;;;;;;;18.30;99.90;;;;;;5112422;28;19920;-64
2023/07/30 09:31:54;;;;;;;;;;;18.40;99.90;;;;;;5110497;28;20382;-66
2023/07/30 09:34:21;;;;;;;;;;;18.50;99.90;;;;;;5112094;28;19923;-64
2023/07/30 09:36:47;;;;;;;;;;;18.90;99.90;;;;;;5113412;28;19974;-65
2023/07/30 09:39:16;;;;;;;;;;;18.90;99.90;;;;;;5112124;28;19920;-64
2023/07/30 09:41:42;;;;;;;;;;;18.80;99.90;;;;;;5113453;28;20291;-65
2023/07/30 09:44:07;;;;;;;;;;;18.80;99.90;;;;;;5112804;28;19983;-65
2023/07/30 09:46:41;;;;;;;;;;;18.70;99.90;;;;;;5112758;28;20434;-65
2023/07/30 09:49:08;;;;;;;;;;;19.00;99.90;;;;;;5113070;28;19927;-64
2023/07/30 09:51:34;;;;;;;;;;;18.60;99.90;;;;;;5112782;28;19924;-65
2023/07/30 09:54:00;;;;;;;;;;;18.80;99.90;;;;;;5112535;28;20006;-64
2023/07/30 09:56:26;;;;;;;;;;;18.80;99.90;;;;;;5112743;28;19924;-65
2023/07/30 09:58:51;;;;;;;;;;;18.50;99.90;;;;;;5112496;28;19946;-70
2023/07/30 10:01:18;;;;;;;;;;;18.90;99.90;;;;;;5112281;28;19931;-64
2023/07/30 10:03:44;;;;;;;;;;;18.80;99.90;;;;;;5112751;28;19919;-64
2023/07/30 10:06:11;;;;;;;;;;;18.90;99.90;;;;;;5112430;28;19924;-64
2023/07/30 10:08:38;;;;;;;;;;;18.90;99.90;;;;;;5112568;28;20022;-66
2023/07/30 10:11:05;;;;;;;;;;;18.60;99.90;;;;;;5112562;28;19920;-65
2023/07/30 10:13:30;;;;;;;;;;;18.70;99.90;;;;;;5112413;28;20371;-64
2023/07/30 10:15:58;;;;;;;;;;;18.90;99.90;;;;;;5112171;28;19924;-65
2023/07/30 10:18:25;;;;;;;;;;;19.10;99.90;;;;;;5112549;28;20272;-65
2023/07/30 10:20:54;;;;;;;;;;;19.30;99.90;;;;;;5112432;28;19939;-65
2023/07/30 10:23:20;;;;;;;;;;;18.90;99.90;;;;;;5112384;28;19932;-65
2023/07/30 10:25:47;;;;;;;;;;;19.10;99.90;;;;;;5112320;28;19929;-66
2023/07/30 10:28:27;;;;;;;;;;;18.60;99.90;;;;;;5111944;28;20344;-67
2023/07/30 10:30:57;;;;;;;;;;;18.80;99.90;;;;;;5112248;28;20664;-65
2023/07/30 10:33:22;;;;;;;;;;;18.90;99.90;;;;;;5111618;28;20421;-65
2023/07/30 10:35:53;;;;;;;;;;;18.60;99.90;;;;;;5111831;28;19924;-64
2023/07/30 10:38:20;;;;;;;;;;;18.30;99.90;;;;;;5111449;28;20383;-66
2023/07/30 10:41:02;;;;;;;;;;;18.20;99.90;;;;;;5111613;28;19924;-66
2023/07/30 10:43:39;;;;;;;;;;;19.00;99.90;;;;;;5110083;28;20272;-66
2023/07/30 10:46:05;;;;;;;;;;;19.30;99.90;;;;;;5115245;28;20375;-67
2023/07/30 10:48:32;;;;;;;;;;;19.60;99.90;;;;;;5116412;28;20017;-66
2023/07/30 10:50:57;;;;;;;;;;;19.60;99.90;;;;;;5115342;28;19963;-65
2023/07/30 10:53:23;;;;;;;;;;;19.70;99.90;;;;;;5116247;28;20377;-68
2023/07/30 10:55:49;;;;;;;;;;;20.30;99.90;;;;;;5116450;28;19919;-65
2023/07/30 10:58:16;;;;;;;;;;;20.20;99.90;;;;;;5116082;28;19991;-64
2023/07/30 11:00:41;;;;;;;;;;;20.60;99.90;;;;;;5116214;28;20028;-64
2023/07/30 11:03:07;;;;;;;;;;;20.60;99.90;;;;;;5116144;28;20010;-65
2023/07/30 11:05:32;;;;;;;;;;;20.40;99.90;;;;;;5115999;28;19920;-66
2023/07/30 11:07:58;;;;;;;;;;;20.50;99.90;;;;;;5115536;28;19989;-65
2023/07/30 11:10:24;;;;;;;;;;;20.90;99.90;;;;;;5114818;28;19973;-67
2023/07/30 11:12:49;;;;;;;;;;;21.10;99.90;;;;;;5116214;28;19930;-65
2023/07/30 11:15:15;;;;;;;;;;;21.10;99.90;;;;;;5116117;28;19923;-65
2023/07/30 11:17:41;;;;;;;;;;;21.30;99.90;;;;;;5098390;28;20374;-67
2023/07/30 11:20:08;;;;;;;;;;;21.50;99.90;;;;;;5096109;28;19926;-67
2023/07/30 11:22:35;;;;;;;;;;;20.70;99.90;;;;;;5097423;28;19970;-66
2023/07/30 11:25:05;;;;;;;;;;;20.50;99.90;;;;;;5113173;27;20065;-67
2023/07/30 11:27:44;;;;;;;;;;;19.60;99.90;;;;;;5112263;27;19942;-67
2023/07/30 11:30:09;;;;;;;;;;;19.80;99.90;;;;;;5111482;27;20051;-67
2023/07/30 11:32:35;;;;;;;;;;;20.20;99.90;;;;;;4177092;28;10000826;-66
2023/07/30 11:35:01;;;;;;;;;;;20.60;99.90;;;;;;5061926;28;19928;-64
2023/07/30 11:37:26;;;;;;;;;;;21.00;99.90;;;;;;5047175;28;20683;-71
2023/07/30 11:39:52;;;;;;;;;;;20.30;99.90;;;;;;5052335;28;19924;-64
2023/07/30 11:42:18;;;;;;;;;;;20.70;99.90;;;;;;5054425;28;20365;-64
2023/07/30 11:44:43;;;;;;;;;;;20.90;99.90;;;;;;5054388;28;19921;-64
2023/07/30 11:47:09;;;;;;;;;;;19.30;99.90;;;;;;5054136;28;19927;-63
2023/07/30 11:49:35;;;;;;;;;;;20.50;99.90;;;;;;5053424;28;20027;-62
2023/07/30 11:52:08;;;;;;;;;;;19.80;99.90;;;;;;5054441;28;19924;-64
2023/07/30 11:54:33;;;;;;;;;;;18.90;99.90;;;;;;5053762;28;19924;-62
2023/07/30 11:56:59;;;;;;;;;;;18.30;99.90;;;;;;5053114;28;19927;-62
2023/07/30 11:59:25;;;;;;;;;;;18.40;99.90;;;;;;5054071;28;19921;-62
2023/07/30 12:01:50;;;;;;;;;;;18.90;99.90;;;;;;5053712;28;19928;-62
2023/07/30 12:04:16;;;;;;;;;;;19.40;99.90;;;;;;5049582;28;19936;-69
2023/07/30 12:06:42;;;;;;;;;;;19.70;99.90;;;;;;5044010;28;19928;-62
2023/07/30 12:09:11;;;;;;;;;;;20.00;99.90;;;;;;5053938;28;19920;-63
2023/07/30 12:11:53;;;;;;;;;;;20.30;99.90;;;;;;5054173;28;19924;-64
2023/07/30 12:14:19;;;;;;;;;;;21.00;99.90;;;;;;5053836;28;19921;-63
2023/07/30 12:16:44;;;;;;;;;;;20.90;99.90;;;;;;5032318;28;20389;-64
2023/07/30 12:19:10;;;;;;;;;;;20.60;99.90;;;;;;5033805;28;19925;-64
2023/07/30 12:21:36;;;;;;;;;;;20.90;99.90;;;;;;5033955;28;20440;-63
2023/07/30 12:24:01;;;;;;;;;;;20.80;99.90;;;;;;5034016;28;19924;-64
2023/07/30 12:26:27;;;;;;;;;;;21.00;99.90;;;;;;5033916;28;19925;-65
2023/07/30 12:28:52;;;;;;;;;;;21.20;99.90;;;;;;5034004;28;19921;-65
2023/07/30 12:31:18;;;;;;;;;;;20.60;99.90;;;;;;5033924;28;19921;-63
2023/07/30 12:33:44;;;;;;;;;;;20.50;99.90;;;;;;5033557;28;19947;-64
2023/07/30 12:36:09;;;;;;;;;;;20.40;99.90;;;;;;5033798;28;20011;-64
2023/07/30 12:38:35;;;;;;;;;;;20.10;99.90;;;;;;5033706;28;19932;-63
2023/07/30 12:41:00;;;;;;;;;;;19.90;99.90;;;;;;5033815;28;19925;-65
2023/07/30 12:43:26;;;;;;;;;;;19.90;99.90;;;;;;5033756;28;19925;-65
2023/07/30 12:45:51;;;;;;;;;;;20.10;99.90;;;;;;5033588;28;19928;-64
2023/07/30 12:48:17;;;;;;;;;;;20.20;99.90;;;;;;5034351;28;19924;-64
2023/07/30 12:50:43;;;;;;;;;;;20.60;99.90;;;;;;5033755;28;19940;-66
2023/07/30 12:53:08;;;;;;;;;;;20.60;99.90;;;;;;5033221;28;19921;-64
2023/07/30 12:55:34;;;;;;;;;;;20.60;99.90;;;;;;5033787;28;19921;-62
2023/07/30 12:57:59;;;;;;;;;;;21.00;99.90;;;;;;5033422;28;20460;-63
2023/07/30 13:00:25;;;;;;;;;;;21.10;99.90;;;;;;5033601;28;19921;-65
2023/07/30 13:02:55;;;;;;;;;;;21.20;99.90;;;;;;5032575;28;20011;-64
2023/07/30 13:05:21;;;;;;;;;;;21.10;99.90;;;;;;5033436;28;19932;-64
2023/07/30 13:07:46;;;;;;;;;;;21.10;99.90;;;;;;5032669;28;19921;-63
2023/07/30 13:10:12;;;;;;;;;;;20.40;99.90;;;;;;5033417;28;20262;-64
2023/07/30 13:12:38;;;;;;;;;;;20.50;99.90;;;;;;5033339;28;20309;-66
2023/07/30 13:15:03;;;;;;;;;;;20.30;99.90;;;;;;5033355;28;19932;-64
2023/07/30 13:17:29;;;;;;;;;;;20.40;99.90;;;;;;5033248;28;19925;-64
2023/07/30 13:19:55;;;;;;;;;;;20.50;99.90;;;;;;5015872;28;20361;-64
2023/07/30 13:22:20;;;;;;;;;;;20.70;99.90;;;;;;5032170;28;19925;-63
2023/07/30 13:24:46;;;;;;;;;;;20.40;99.90;;;;;;5033293;28;19921;-63
2023/07/30 13:27:12;;;;;;;;;;;21.20;99.90;;;;;;5032196;28;20273;-64
2023/07/30 13:29:37;;;;;;;;;;;21.30;99.90;;;;;;5033091;28;19921;-63
2023/07/30 13:32:03;;;;;;;;;;;21.40;99.90;;;;;;5032662;28;19925;-62
2023/07/30 13:34:28;;;;;;;;;;;21.40;99.90;;;;;;5032928;28;19925;-64
2023/07/30 13:36:54;;;;;;;;;;;21.20;99.90;;;;;;5032864;28;19925;-63
2023/07/30 13:39:19;;;;;;;;;;;20.60;99.90;;;;;;5032859;28;19952;-65
2023/07/30 13:41:45;;;;;;;;;;;21.00;99.90;;;;;;5031684;28;19921;-64
2023/07/30 13:44:11;;;;;;;;;;;21.30;99.90;;;;;;5032819;28;19921;-63
2023/07/30 13:46:40;;;;;;;;;;;21.30;99.90;;;;;;5032655;28;19925;-63